createdAt,value
2018-02-05T00:02:22.743Z,92.10
2018-02-05T00:04:50.184Z,92.10
2018-02-05T00:07:17.627Z,91.90
2018-02-05T00:09:45.075Z,91.90
2018-02-05T00:12:12.523Z,92.10
2018-02-05T00:14:39.964Z,92.20
2018-02-05T00:17:07.411Z,92.30
2018-02-05T00:19:35.624Z,92.50
2018-02-05T00:22:03.064Z,92.50
2018-02-05T00:24:30.535Z,92.60
2018-02-05T00:26:57.972Z,92.60
2018-02-05T00:29:25.430Z,92.60
2018-02-05T00:31:52.892Z,92.80
2018-02-05T00:34:20.337Z,92.70
2018-02-05T00:36:47.768Z,92.70
2018-02-05T00:39:15.291Z,92.80
2018-02-05T00:41:42.736Z,92.90
2018-02-05T00:44:12.089Z,92.70
2018-02-05T00:46:39.517Z,92.80
2018-02-05T00:49:06.971Z,92.70
2018-02-05T00:51:34.412Z,92.80
2018-02-05T00:54:01.854Z,92.90
2018-02-05T00:56:29.313Z,93.40
2018-02-05T00:58:56.751Z,93.40
2018-02-05T01:01:24.211Z,93.40
2018-02-05T01:03:51.669Z,93.40
2018-02-05T01:06:19.113Z,93.60
2018-02-05T01:08:46.562Z,93.60
2018-02-05T01:11:14.018Z,93.40
2018-02-05T01:13:41.473Z,93.30
2018-02-05T01:16:08.908Z,93.50
2018-02-05T01:18:36.752Z,93.30
2018-02-05T01:21:04.186Z,93.40
2018-02-05T01:23:31.620Z,93.50
2018-02-05T01:25:59.075Z,93.20
2018-02-05T01:28:26.529Z,93.60
2018-02-05T01:30:53.990Z,93.10
2018-02-05T01:33:21.450Z,93.00
2018-02-05T01:35:48.896Z,93.10
2018-02-05T01:38:16.328Z,93.10
2018-02-05T01:40:43.776Z,93.00
2018-02-05T01:43:11.243Z,93.00
2018-02-05T01:45:38.693Z,92.90
2018-02-05T01:48:06.150Z,93.10
2018-02-05T01:50:33.611Z,93.20
2018-02-05T01:53:01.085Z,92.90
2018-02-05T01:55:28.529Z,92.90
2018-02-05T01:57:55.977Z,93.10
2018-02-05T02:00:23.433Z,92.60
2018-02-05T02:02:50.892Z,92.70
2018-02-05T02:05:18.341Z,92.60
2018-02-05T02:07:45.779Z,92.70
2018-02-05T02:10:13.224Z,93.00
2018-02-05T02:12:40.665Z,92.90
2018-02-05T02:15:08.120Z,92.30
2018-02-05T02:17:36.262Z,92.20
2018-02-05T02:20:03.718Z,92.30
2018-02-05T02:22:31.152Z,92.40
2018-02-05T02:24:58.605Z,92.30
2018-02-05T02:27:26.077Z,92.40
2018-02-05T02:29:53.534Z,92.30
2018-02-05T02:32:20.998Z,92.40
2018-02-05T02:34:48.429Z,92.10
2018-02-05T02:37:15.913Z,91.70
2018-02-05T02:39:43.374Z,91.50
2018-02-05T02:42:10.844Z,91.70
2018-02-05T02:44:38.284Z,92.00
2018-02-05T02:47:05.740Z,92.10
2018-02-05T02:49:33.206Z,92.30
2018-02-05T02:52:01.148Z,92.30
2018-02-05T02:54:28.589Z,92.30
2018-02-05T02:56:56.045Z,92.20
2018-02-05T02:59:23.514Z,92.20
2018-02-05T03:01:50.983Z,91.80
2018-02-05T03:04:18.442Z,92.10
2018-02-05T03:06:45.901Z,92.10
2018-02-05T03:09:14.123Z,91.80
2018-02-05T03:11:41.579Z,91.70
2018-02-05T03:14:09.041Z,92.00
2018-02-05T03:16:36.472Z,91.90
2018-02-05T03:19:03.928Z,91.80
2018-02-05T03:21:32.145Z,91.80
2018-02-05T03:23:59.606Z,91.70
2018-02-05T03:26:27.067Z,91.30
2018-02-05T03:28:54.534Z,91.50
2018-02-05T03:31:22.000Z,91.50
2018-02-05T03:33:49.455Z,91.40
2018-02-05T03:36:16.901Z,91.50
2018-02-05T03:38:44.438Z,91.20
2018-02-05T03:41:11.906Z,91.30
2018-02-05T03:43:39.362Z,91.10
2018-02-05T03:46:06.812Z,91.00
2018-02-05T03:48:34.274Z,91.50
2018-02-05T03:51:01.732Z,91.20
2018-02-05T03:53:29.187Z,91.10
2018-02-05T03:55:56.638Z,91.00
2018-02-05T03:58:24.087Z,91.10
2018-02-05T04:00:51.549Z,91.20
2018-02-05T04:03:19.010Z,90.90
2018-02-05T04:05:46.452Z,90.70
2018-02-05T04:08:13.904Z,90.80
2018-02-05T04:10:41.345Z,91.10
2018-02-05T04:13:08.795Z,91.00
2018-02-05T04:15:36.235Z,90.90
2018-02-05T04:18:04.459Z,91.00
2018-02-05T04:20:31.894Z,91.00
2018-02-05T04:23:00.105Z,91.00
2018-02-05T04:25:27.564Z,91.00
2018-02-05T04:27:55.029Z,91.10
2018-02-05T04:30:23.764Z,91.30
2018-02-05T04:32:51.208Z,91.30
2018-02-05T04:35:18.679Z,91.30
2018-02-05T04:37:46.139Z,91.50
2018-02-05T04:40:13.597Z,91.50
2018-02-05T04:42:41.052Z,91.60
2018-02-05T04:45:08.508Z,91.70
2018-02-05T04:47:35.946Z,91.70
2018-02-05T04:50:03.436Z,91.70
2018-02-05T04:52:30.872Z,91.70
2018-02-05T04:54:58.339Z,91.70
2018-02-05T04:57:25.804Z,91.70
2018-02-05T04:59:53.249Z,91.60
2018-02-05T05:02:20.706Z,91.70
2018-02-05T05:04:48.173Z,91.80
2018-02-05T05:07:15.680Z,91.70
2018-02-05T05:09:43.891Z,91.80
2018-02-05T05:12:11.335Z,91.70
2018-02-05T05:14:38.815Z,91.90
2018-02-05T05:17:06.257Z,91.90
2018-02-05T05:19:33.717Z,91.80
2018-02-05T05:22:01.179Z,91.90
2018-02-05T05:24:29.402Z,92.10
2018-02-05T05:26:56.851Z,92.00
2018-02-05T05:29:24.342Z,92.10
2018-02-05T05:31:51.785Z,92.00
2018-02-05T05:34:19.263Z,92.00
2018-02-05T05:36:46.700Z,92.20
2018-02-05T05:39:14.141Z,92.00
2018-02-05T05:41:41.596Z,92.00
2018-02-05T05:44:09.032Z,92.00
2018-02-05T05:46:37.249Z,92.00
2018-02-05T05:49:04.688Z,91.90
2018-02-05T05:51:32.133Z,91.90
2018-02-05T06:00:43.185Z,92.20
2018-02-05T06:03:10.652Z,92.30
2018-02-05T06:05:38.113Z,92.50
2018-02-05T06:08:05.551Z,92.60
2018-02-05T06:10:33.002Z,92.60
2018-02-05T06:13:00.475Z,92.60
2018-02-05T06:15:27.928Z,92.60
2018-02-05T06:17:55.380Z,92.60
2018-02-05T06:20:22.844Z,92.60
2018-02-05T06:22:50.300Z,92.50
2018-02-05T06:25:17.756Z,92.30
2018-02-05T06:27:45.986Z,92.30
2018-02-05T06:30:13.454Z,92.30
2018-02-05T06:32:41.082Z,92.50
2018-02-05T06:35:08.527Z,92.50
2018-02-05T06:37:35.976Z,92.50
2018-02-05T06:40:03.440Z,92.50
2018-02-05T06:42:30.887Z,92.50
2018-02-05T06:44:58.349Z,92.50
2018-02-05T06:47:25.807Z,92.30
2018-02-05T06:49:53.280Z,92.30
2018-02-05T06:52:32.451Z,92.30
2018-02-05T06:55:12.573Z,92.40
2018-02-05T06:57:40.038Z,92.30
2018-02-05T07:00:07.491Z,92.50
2018-02-05T07:02:35.204Z,92.50
2018-02-05T07:05:03.424Z,92.70
2018-02-05T07:07:30.886Z,92.60
2018-02-05T07:09:58.347Z,92.60
2018-02-05T07:12:25.795Z,92.70
2018-02-05T07:14:53.275Z,92.70
2018-02-05T07:17:20.716Z,92.60
2018-02-05T07:19:48.171Z,92.50
2018-02-05T07:22:15.640Z,92.40
2018-02-05T07:24:43.101Z,92.40
2018-02-05T07:27:11.112Z,92.30
2018-02-05T07:29:38.548Z,92.20
2018-02-05T07:32:05.992Z,92.20
2018-02-05T07:34:33.461Z,92.10
2018-02-05T07:37:00.910Z,92.00
2018-02-05T07:39:28.369Z,91.80
2018-02-05T07:41:55.819Z,92.00
2018-02-05T07:44:24.041Z,91.90
2018-02-05T07:46:51.510Z,91.90
2018-02-05T07:49:18.961Z,91.80
2018-02-05T07:51:46.433Z,91.80
2018-02-05T07:54:13.879Z,91.90
2018-02-05T07:56:41.326Z,91.60
2018-02-05T07:59:08.786Z,91.80
2018-02-05T08:01:36.262Z,92.00
2018-02-05T08:04:03.712Z,90.40
2018-02-05T08:06:31.156Z,85.10
2018-02-05T08:08:58.592Z,80.90
2018-02-05T08:11:26.054Z,78.20
2018-02-05T08:13:53.500Z,77.60
2018-02-05T08:16:20.961Z,75.30
2018-02-05T08:18:48.414Z,72.80
2018-02-05T08:21:15.863Z,70.60
2018-02-05T08:23:43.326Z,69.40
2018-02-05T08:26:10.776Z,66.80
2018-02-05T08:28:38.235Z,65.00
2018-02-05T08:31:05.681Z,64.70
2018-02-05T08:33:33.137Z,62.60
2018-02-05T08:36:00.585Z,61.30
2018-02-05T08:38:28.028Z,60.70
2018-02-05T08:40:55.470Z,59.00
2018-02-05T08:43:22.907Z,58.30
2018-02-05T08:45:50.361Z,57.50
2018-02-05T08:48:18.144Z,56.90
2018-02-05T08:50:46.528Z,56.70
2018-02-05T08:53:13.956Z,55.40
2018-02-05T08:55:41.450Z,55.50
2018-02-05T08:58:08.842Z,55.50
2018-02-05T09:00:36.289Z,55.40
2018-02-05T09:03:03.743Z,55.30
2018-02-05T09:05:31.200Z,55.10
2018-02-05T09:08:01.084Z,54.70
2018-02-05T09:10:28.524Z,54.80
2018-02-05T09:12:55.970Z,54.80
2018-02-05T09:15:24.468Z,53.60
2018-02-05T09:17:51.912Z,53.30
2018-02-05T09:20:20.475Z,54.40
2018-02-05T09:22:47.906Z,56.50
2018-02-05T09:25:15.488Z,58.10
2018-02-05T09:27:42.920Z,59.50
2018-02-05T09:30:10.362Z,61.40
2018-02-05T09:32:37.817Z,63.00
2018-02-05T09:35:05.263Z,64.00
2018-02-05T09:37:32.714Z,64.90
2018-02-05T09:40:00.171Z,65.40
2018-02-05T09:42:27.618Z,65.90
2018-02-05T09:44:55.057Z,66.60
2018-02-05T09:47:22.496Z,67.00
2018-02-05T09:49:50.292Z,68.10
2018-02-05T09:52:17.729Z,67.70
2018-02-05T09:54:45.167Z,68.70
2018-02-05T09:57:12.621Z,68.50
2018-02-05T09:59:40.049Z,67.90
2018-02-05T10:02:07.500Z,68.20
2018-02-05T10:04:34.941Z,68.50
2018-02-05T10:07:02.384Z,67.50
2018-02-05T10:09:30.608Z,66.80
2018-02-05T10:11:58.053Z,66.70
2018-02-05T10:14:25.518Z,66.60
2018-02-05T10:16:52.944Z,66.20
2018-02-05T10:19:21.171Z,64.80
2018-02-05T10:21:48.609Z,64.80
2018-02-05T10:24:16.070Z,64.60
2018-02-05T10:26:43.506Z,64.90
2018-02-05T10:29:10.963Z,64.90
2018-02-05T10:31:38.395Z,64.30
2018-02-05T10:34:05.841Z,64.80
2018-02-05T10:36:33.297Z,64.70
2018-02-05T10:39:00.730Z,62.90
2018-02-05T10:41:28.216Z,61.80
2018-02-05T10:43:55.650Z,60.50
2018-02-05T10:46:23.111Z,60.90
2018-02-05T10:48:50.581Z,59.60
2018-02-05T10:51:18.784Z,59.20
2018-02-05T10:53:46.237Z,59.20
2018-02-05T10:56:13.674Z,57.60
2018-02-05T10:58:41.143Z,57.50
2018-02-05T11:01:08.836Z,57.90
2018-02-05T11:03:36.278Z,58.40
2018-02-05T11:06:03.742Z,57.70
2018-02-05T11:08:31.181Z,58.10
2018-02-05T11:10:58.657Z,58.40
2018-02-05T11:13:26.105Z,58.50
2018-02-05T11:15:53.555Z,58.30
2018-02-05T11:18:20.994Z,58.00
2018-02-05T11:20:48.458Z,56.90
2018-02-05T11:23:15.924Z,55.40
2018-02-05T11:25:43.369Z,53.40
2018-02-05T11:28:10.835Z,52.80
2018-02-05T11:30:38.277Z,50.10
2018-02-05T11:33:05.716Z,48.20
2018-02-05T11:35:33.176Z,47.30
2018-02-05T11:38:02.076Z,43.90
2018-02-05T11:40:29.528Z,43.80
2018-02-05T11:42:57.213Z,43.00
2018-02-05T11:45:24.665Z,42.50
2018-02-05T11:47:52.133Z,41.60
2018-02-05T11:50:20.186Z,40.80
2018-02-05T11:52:47.616Z,39.50
2018-02-05T11:55:15.084Z,38.40
2018-02-05T11:57:42.791Z,38.70
2018-02-05T12:00:10.246Z,38.80
2018-02-05T12:02:37.810Z,39.20
2018-02-05T12:05:05.256Z,39.40
2018-02-05T12:07:32.688Z,38.80
2018-02-05T12:10:00.142Z,37.90
2018-02-05T12:12:27.672Z,38.60
2018-02-05T12:14:55.139Z,39.60
2018-02-05T12:17:22.833Z,39.00
2018-02-05T12:19:50.263Z,38.60
2018-02-05T12:22:17.706Z,38.50
2018-02-05T12:24:45.230Z,38.20
2018-02-05T12:27:12.678Z,37.60
2018-02-05T12:29:40.242Z,37.00
2018-02-05T12:32:07.677Z,36.10
2018-02-05T12:34:35.336Z,36.20
2018-02-05T12:37:02.777Z,36.40
2018-02-05T12:39:30.238Z,36.10
2018-02-05T12:41:57.722Z,35.80
2018-02-05T12:44:25.316Z,35.70
2018-02-05T12:46:53.533Z,34.60
2018-02-05T12:49:20.979Z,34.60
2018-02-05T12:51:49.186Z,35.20
2018-02-05T12:54:16.666Z,35.00
2018-02-05T12:56:44.095Z,35.00
2018-02-05T12:59:11.557Z,34.60
2018-02-05T13:01:40.528Z,34.30
2018-02-05T13:04:13.669Z,33.70
2018-02-05T13:06:41.113Z,33.60
2018-02-05T13:09:08.568Z,34.50
2018-02-05T13:11:36.043Z,34.50
2018-02-05T13:14:03.552Z,35.10
2018-02-05T13:16:30.954Z,33.70
2018-02-05T13:18:58.395Z,34.40
2018-02-05T13:21:25.841Z,33.90
2018-02-05T13:23:53.283Z,33.40
2018-02-05T13:26:21.212Z,34.20
2018-02-05T13:28:48.661Z,34.70
2018-02-05T13:31:16.099Z,34.20
2018-02-05T13:33:43.565Z,34.00
2018-02-05T13:36:12.008Z,33.40
2018-02-05T13:38:39.494Z,33.40
2018-02-05T13:41:07.143Z,34.10
2018-02-05T13:43:34.595Z,33.70
2018-02-05T13:46:02.066Z,33.40
2018-02-05T13:48:29.517Z,33.70
2018-02-05T13:50:56.965Z,34.60
2018-02-05T13:53:24.448Z,36.00
2018-02-05T13:55:51.892Z,37.90
2018-02-05T13:58:19.327Z,39.10
2018-02-05T14:00:46.784Z,41.50
2018-02-05T14:03:14.992Z,43.80
2018-02-05T14:05:42.432Z,43.70
2018-02-05T14:08:09.871Z,44.50
2018-02-05T14:10:38.089Z,42.60
2018-02-05T14:13:05.538Z,43.40
2018-02-05T14:15:32.987Z,41.80
2018-02-05T14:18:01.200Z,41.40
2018-02-05T14:20:28.652Z,41.40
2018-02-05T14:22:56.101Z,40.20
2018-02-05T14:25:23.564Z,38.50
2018-02-05T14:27:51.000Z,37.80
2018-02-05T14:30:19.122Z,37.20
2018-02-05T14:32:46.543Z,37.20
2018-02-05T14:35:14.761Z,36.60
2018-02-05T14:37:43.928Z,35.50
2018-02-05T14:40:11.383Z,35.40
2018-02-05T14:42:39.610Z,34.70
2018-02-05T14:45:09.996Z,34.60
2018-02-05T14:47:37.436Z,35.10
2018-02-05T14:50:05.649Z,35.60
2018-02-05T14:52:33.123Z,35.50
2018-02-05T14:55:00.571Z,36.80
2018-02-05T14:57:30.043Z,39.10
2018-02-05T14:59:57.490Z,38.90
2018-02-05T15:02:24.925Z,39.50
2018-02-05T15:04:52.373Z,38.70
2018-02-05T15:07:19.838Z,38.80
2018-02-05T15:09:48.923Z,39.50
2018-02-05T15:12:16.361Z,39.70
2018-02-05T15:14:44.576Z,40.60
2018-02-05T15:17:12.013Z,40.50
2018-02-05T15:19:39.455Z,41.80
2018-02-05T15:22:06.908Z,42.10
2018-02-05T15:24:34.335Z,43.20
2018-02-05T15:27:01.788Z,44.20
2018-02-05T15:29:29.234Z,44.40
2018-02-05T15:31:56.676Z,45.20
2018-02-05T15:34:24.125Z,45.80
2018-02-05T15:36:52.333Z,46.00
2018-02-05T15:39:19.763Z,45.90
2018-02-05T15:41:47.972Z,47.10
2018-02-05T15:44:15.428Z,47.00
2018-02-05T15:46:42.890Z,47.70
2018-02-05T15:49:10.338Z,48.20
2018-02-05T15:51:38.536Z,49.10
2018-02-05T15:54:05.995Z,49.10
2018-02-05T15:56:33.453Z,49.70
2018-02-05T15:59:00.911Z,50.30
2018-02-05T16:01:28.357Z,50.70
2018-02-05T16:03:56.560Z,51.60
2018-02-05T16:06:24.001Z,51.50
2018-02-05T16:08:51.452Z,52.20
2018-02-05T16:11:18.893Z,52.80
2018-02-05T16:13:46.339Z,53.10
2018-02-05T16:16:13.781Z,53.70
2018-02-05T16:18:41.238Z,54.10
2018-02-05T16:21:08.672Z,54.20
2018-02-05T16:23:36.126Z,54.40
2018-02-05T16:26:03.571Z,55.70
2018-02-05T16:28:31.020Z,55.40
2018-02-05T16:30:59.900Z,56.00
2018-02-05T16:33:27.337Z,56.00
2018-02-05T16:35:54.781Z,56.40
2018-02-05T16:38:22.234Z,56.70
2018-02-05T16:40:49.680Z,56.90
2018-02-05T16:43:17.139Z,57.10
2018-02-05T16:45:44.564Z,57.50
2018-02-05T16:48:12.016Z,58.20
2018-02-05T16:50:39.467Z,58.80
2018-02-05T16:53:06.924Z,59.30
2018-02-05T16:55:34.361Z,60.10
2018-02-05T16:58:01.794Z,60.80
2018-02-05T17:00:29.245Z,61.20
2018-02-05T17:02:56.699Z,61.30
2018-02-05T17:05:24.172Z,61.40
2018-02-05T17:07:51.614Z,61.70
2018-02-05T17:10:19.070Z,61.40
2018-02-05T17:12:46.526Z,61.00
2018-02-05T17:15:13.994Z,60.90
2018-02-05T17:17:41.457Z,61.40
2018-02-05T17:20:09.669Z,61.80
2018-02-05T17:22:37.881Z,62.30
2018-02-05T17:25:05.334Z,62.10
2018-02-05T17:27:32.780Z,62.60
2018-02-05T17:30:00.214Z,62.70
2018-02-05T17:32:27.668Z,63.00
2018-02-05T17:34:55.107Z,63.40
2018-02-05T17:37:22.543Z,63.90
2018-02-05T17:39:50.019Z,64.10
2018-02-05T17:42:18.063Z,64.40
2018-02-05T17:44:45.540Z,65.20
2018-02-05T17:47:12.932Z,65.10
2018-02-05T17:49:40.376Z,65.60
2018-02-05T17:52:07.877Z,65.60
2018-02-05T17:54:35.312Z,66.10
2018-02-05T17:57:02.787Z,66.20
2018-02-05T17:59:30.262Z,66.40
2018-02-05T18:01:57.690Z,66.80
2018-02-05T18:04:25.128Z,67.10
2018-02-05T18:06:52.572Z,67.60
2018-02-05T18:09:20.806Z,68.10
2018-02-05T18:11:48.249Z,68.00
2018-02-05T18:14:15.706Z,67.90
2018-02-05T18:16:43.152Z,68.70
2018-02-05T18:19:10.617Z,69.00
2018-02-05T18:21:38.072Z,69.30
2018-02-05T18:24:05.513Z,69.60
2018-02-05T18:26:33.730Z,69.50
2018-02-05T18:29:01.177Z,69.40
2018-02-05T18:31:28.615Z,69.80
2018-02-05T18:33:56.087Z,69.80
2018-02-05T18:36:23.529Z,69.90
2018-02-05T18:38:50.984Z,70.50
2018-02-05T18:41:18.428Z,70.60
2018-02-05T18:43:45.899Z,70.90
2018-02-05T18:46:13.421Z,71.10
2018-02-05T18:48:40.878Z,71.40
2018-02-05T18:51:08.332Z,71.60
2018-02-05T18:53:35.804Z,72.00
2018-02-05T18:56:03.257Z,72.50
2018-02-05T18:58:30.695Z,72.60
2018-02-05T19:00:58.159Z,72.90
2018-02-05T19:03:25.628Z,73.00
2018-02-05T19:05:53.086Z,72.90
2018-02-05T19:08:20.536Z,72.40
2018-02-05T19:10:47.968Z,72.60
2018-02-05T19:13:15.433Z,72.40
2018-02-05T19:15:42.881Z,72.70
2018-02-05T19:18:10.337Z,72.60
2018-02-05T19:20:37.777Z,72.40
2018-02-05T19:23:05.223Z,72.20
2018-02-05T19:25:32.844Z,72.30
2018-02-05T19:28:00.296Z,72.30
2018-02-05T19:30:27.783Z,72.40
2018-02-05T19:32:55.250Z,72.50
2018-02-05T19:35:22.683Z,72.90
2018-02-05T19:37:50.145Z,72.80
2018-02-05T19:40:17.581Z,73.10
2018-02-05T19:42:45.046Z,73.20
2018-02-05T19:45:12.493Z,73.70
2018-02-05T19:47:39.948Z,74.00
2018-02-05T19:50:07.418Z,74.50
2018-02-05T19:52:34.853Z,74.30
2018-02-05T19:55:02.320Z,74.50
2018-02-05T19:57:29.779Z,74.70
2018-02-05T19:59:57.245Z,74.80
2018-02-05T20:02:24.956Z,75.00
2018-02-05T20:04:52.416Z,75.40
2018-02-05T20:07:19.889Z,75.90
2018-02-05T20:09:47.349Z,76.00
2018-02-05T20:12:14.813Z,76.10
2018-02-05T20:14:42.269Z,76.10
2018-02-05T20:17:09.721Z,75.70
2018-02-05T20:19:37.201Z,76.10
2018-02-05T20:22:04.655Z,76.40
2018-02-05T20:24:32.122Z,76.20
2018-02-05T20:26:59.573Z,76.20
2018-02-05T20:29:27.028Z,75.90
2018-02-05T20:31:54.479Z,76.00
2018-02-05T20:34:21.974Z,76.10
2018-02-05T20:36:49.416Z,76.20
2018-02-05T20:39:16.904Z,76.30
2018-02-05T20:41:44.733Z,76.10
2018-02-05T20:44:12.177Z,76.40
2018-02-05T20:46:39.629Z,76.40
2018-02-05T20:49:07.080Z,76.40
2018-02-05T20:51:34.529Z,76.30
2018-02-05T20:54:01.988Z,76.70
2018-02-05T20:56:29.441Z,76.80
2018-02-05T20:58:57.666Z,77.20
2018-02-05T21:01:25.122Z,77.10
2018-02-05T21:03:52.568Z,76.90
2018-02-05T21:06:20.024Z,76.80
2018-02-05T21:08:47.471Z,76.60
2018-02-05T21:11:14.933Z,76.70
2018-02-05T21:13:42.381Z,76.30
2018-02-05T21:16:09.843Z,76.00
2018-02-05T21:18:37.289Z,76.10
2018-02-05T21:21:04.749Z,77.00
2018-02-05T21:23:32.212Z,76.20
2018-02-05T21:25:59.654Z,76.00
2018-02-05T21:28:27.127Z,76.20
2018-02-05T21:30:54.589Z,76.10
2018-02-05T21:33:23.565Z,76.30
2018-02-05T21:35:51.004Z,76.20
2018-02-05T21:38:18.441Z,76.40
2018-02-05T21:40:45.921Z,76.60
2018-02-05T21:43:13.358Z,76.80
2018-02-05T21:45:41.219Z,76.90
2018-02-05T21:48:10.029Z,76.80
2018-02-05T21:50:37.464Z,76.90
2018-02-05T21:53:04.938Z,76.90
2018-02-05T21:55:32.399Z,77.00
2018-02-05T21:57:59.854Z,77.00
2018-02-05T22:00:27.313Z,77.10
2018-02-05T22:02:54.759Z,77.00
2018-02-05T22:05:22.446Z,76.90
2018-02-05T22:07:49.897Z,76.80
2018-02-05T22:10:17.370Z,76.90
2018-02-05T22:12:44.801Z,76.60
2018-02-05T22:15:12.252Z,76.40
2018-02-05T22:17:39.720Z,76.80
2018-02-05T22:20:07.193Z,76.70
2018-02-05T22:22:34.620Z,76.60
2018-02-05T22:25:02.074Z,76.60
2018-02-05T22:27:29.535Z,76.70
2018-02-05T22:29:57.011Z,76.30
2018-02-05T22:32:24.448Z,76.40
2018-02-05T22:34:51.916Z,76.50
2018-02-05T22:37:19.361Z,76.50
2018-02-05T22:39:46.829Z,76.70
2018-02-05T22:42:14.265Z,76.90
2018-02-05T22:44:41.725Z,76.60
2018-02-05T22:47:09.169Z,76.40
2018-02-05T22:49:36.659Z,76.20
2018-02-05T22:52:04.059Z,76.20
2018-02-05T22:54:31.493Z,76.50
2018-02-05T22:56:58.955Z,76.80
2018-02-05T22:59:26.396Z,76.80
2018-02-05T23:01:53.852Z,77.20
2018-02-05T23:04:21.324Z,77.20
2018-02-05T23:06:48.759Z,76.40
2018-02-05T23:09:17.708Z,76.80
2018-02-05T23:11:45.171Z,76.70
2018-02-05T23:14:12.622Z,77.00
2018-02-05T23:16:40.088Z,77.20
2018-02-05T23:19:07.525Z,77.00
2018-02-05T23:21:35.172Z,77.20
2018-02-05T23:24:02.623Z,77.10
2018-02-05T23:26:30.084Z,77.00
2018-02-05T23:28:57.540Z,77.20
2018-02-05T23:31:24.989Z,76.90
2018-02-05T23:33:52.441Z,77.00
2018-02-05T23:36:19.894Z,77.00
2018-02-05T23:38:47.337Z,76.90
2018-02-05T23:41:14.794Z,77.00
2018-02-05T23:43:42.237Z,76.70
2018-02-05T23:46:10.448Z,77.00
2018-02-05T23:48:37.889Z,77.00
2018-02-05T23:51:05.355Z,76.70
2018-02-05T23:53:32.791Z,76.90
2018-02-05T23:56:00.232Z,76.80
2018-02-05T23:58:27.689Z,76.70
